Time;durP1;ratioP1;P1;durP2;ratioP2;P2;SDS_P1;SDS_P2;PMS_P1;PMS_P2;Temp;Humidity;BMP_temperature;BMP_pressure;BME280_temperature;BME280_humidity;BME280_pressure;Samples;Min_cycle;Max_cycle;Signal;HPM_P1;HPM_P2
2022/02/04 00:04:28;;;;;;;;;16.00;12.50;;;;;9.62;70.95;100995.94;5062782;28;46287;-76
2022/02/04 00:21:18;;;;;;;;;12.25;11.00;;;;;9.53;70.93;100972.97;5055337;28;45783;-75
2022/02/04 00:23:38;;;;;;;;;11.50;10.00;;;;;9.66;70.83;100987.00;5055529;28;45492;-76
2022/02/04 00:26:13;;;;;;;;;13.25;12.00;;;;;9.66;70.92;100987.81;5055329;28;46335;-75
2022/02/04 00:33:37;;;;;;;;;14.75;13.50;;;;;9.67;70.72;100978.19;5055418;28;45700;-76
2022/02/04 00:38:58;;;;;;;;;15.75;14.00;;;;;9.62;70.83;100968.00;4993482;28;45957;-76
2022/02/04 00:41:27;;;;;;;;;15.25;12.50;;;;;9.67;70.92;100973.78;4976757;28;45641;-76
2022/02/04 00:43:55;;;;;;;;;15.00;12.00;;;;;9.64;71.01;100960.91;4993560;28;45581;-77
2022/02/04 00:54:40;;;;;;;;;13.00;12.00;;;;;9.73;70.92;100969.13;4992913;28;45560;-75
2022/02/04 01:30:20;;;;;;;;;16.00;12.75;;;;;9.65;71.38;100965.22;5053643;28;45917;-75
2022/02/04 01:32:46;;;;;;;;;14.00;12.00;;;;;9.64;71.34;100968.75;5054039;28;46098;-76
2022/02/04 01:35:17;;;;;;;;;12.75;12.50;;;;;9.64;71.42;100960.06;5054593;28;45846;-78
2022/02/04 01:37:43;;;;;;;;;20.25;12.50;;;;;9.62;71.47;100960.16;5054069;28;45584;-75
2022/02/04 01:40:08;;;;;;;;;17.75;12.00;;;;;9.60;71.18;100961.22;5054001;28;47462;-76
2022/02/04 01:46:06;;;;;;;;;15.00;12.75;;;;;9.62;71.41;100964.53;5054000;28;45485;-76
2022/02/04 01:48:33;;;;;;;;;17.00;13.75;;;;;9.60;71.36;100962.06;5054415;28;45506;-75
2022/02/04 01:50:59;;;;;;;;;23.25;17.00;;;;;9.53;71.22;100954.66;5054166;28;45694;-74
2022/02/04 01:53:28;;;;;;;;;13.00;12.00;;;;;9.59;71.63;100954.28;5054054;28;45607;-78
2022/02/04 02:02:25;;;;;;;;;12.00;10.25;;;;;9.53;71.51;100960.72;5011518;28;45958;-75
2022/02/04 02:04:50;;;;;;;;;18.50;15.50;;;;;9.52;71.68;100963.44;5012427;28;45634;-76
2022/02/04 02:07:20;;;;;;;;;16.00;12.00;;;;;9.51;71.80;100966.97;5012448;28;45836;-75
2022/02/04 02:12:18;;;;;;;;;15.50;11.75;;;;;9.45;72.37;100955.09;5012560;28;45603;-79
2022/02/04 02:14:45;;;;;;;;;13.00;10.75;;;;;9.44;72.50;100963.91;5014782;28;46211;-74
2022/02/04 02:36:51;;;;;;;;;9.75;9.25;;;;;9.46;72.33;100938.50;5046599;28;46216;-76
2022/02/04 02:53:00;;;;;;;;;10.25;6.50;;;;;9.35;72.60;100906.09;5058831;28;45716;-75
2022/02/04 03:01:28;;;;;;;;;7.75;7.50;;;;;9.41;72.54;100924.88;5072375;28;45447;-75
2022/02/04 03:03:56;;;;;;;;;6.75;6.75;;;;;9.44;72.63;100926.47;5073776;28;45589;-77
2022/02/04 03:06:23;;;;;;;;;8.00;7.00;;;;;9.43;72.68;100915.16;5070828;28;46813;-74
2022/02/04 03:08:49;;;;;;;;;7.25;6.75;;;;;9.45;72.82;100912.44;5070157;28;46105;-77
2022/02/04 03:11:15;;;;;;;;;10.00;8.75;;;;;9.42;72.75;100905.63;5068229;28;45562;-76
2022/02/04 03:17:07;;;;;;;;;10.00;6.50;;;;;9.39;72.78;100895.38;5062132;28;46122;-75
2022/02/04 03:19:33;;;;;;;;;8.50;6.50;;;;;9.46;72.87;100904.50;5059246;28;46180;-75
2022/02/04 03:22:04;;;;;;;;;7.25;7.00;;;;;9.42;73.06;100895.16;5045860;28;45807;-74
2022/02/04 03:24:30;;;;;;;;;4.50;2.00;;;;;9.43;72.78;100890.78;5065486;28;45356;-78
2022/02/04 03:27:00;;;;;;;;;6.75;6.00;;;;;9.44;73.01;100890.69;5058904;28;45399;-75
2022/02/04 03:29:36;;;;;;;;;6.00;6.00;;;;;9.43;73.07;100896.00;5057864;28;45653;-77
2022/02/04 03:32:07;;;;;;;;;7.00;5.25;;;;;9.44;72.66;100893.31;5057745;28;45898;-78
2022/02/04 03:34:33;;;;;;;;;7.00;6.75;;;;;9.42;72.92;100892.56;5059246;28;45761;-76
2022/02/04 03:36:58;;;;;;;;;6.00;5.00;;;;;9.40;73.16;100889.19;5057732;28;46471;-77
2022/02/04 03:39:24;;;;;;;;;9.00;8.00;;;;;9.38;72.88;100891.06;5059393;28;45755;-75
2022/02/04 03:41:49;;;;;;;;;9.50;9.00;;;;;9.38;73.31;100898.06;5058752;28;45869;-75
2022/02/04 03:44:17;;;;;;;;;8.00;7.00;;;;;9.29;72.94;100873.31;5057227;28;45859;-78
2022/02/04 03:46:43;;;;;;;;;9.50;7.25;;;;;9.36;72.95;100885.09;5056027;28;45700;-76
2022/02/04 03:49:08;;;;;;;;;11.00;8.00;;;;;9.34;73.14;100884.31;5056286;28;45608;-76
2022/02/04 03:51:36;;;;;;;;;10.75;8.50;;;;;9.30;73.15;100875.00;5056996;28;45463;-76
2022/02/04 03:54:16;;;;;;;;;10.50;9.25;;;;;9.27;73.06;100875.19;5055553;28;45947;-78
2022/02/04 03:56:47;;;;;;;;;11.50;11.00;;;;;9.18;73.38;100868.75;5056220;28;45895;-79
2022/02/04 04:02:36;;;;;;;;;7.50;5.25;;;;;8.76;73.19;100796.41;5056094;28;45448;-79
2022/02/04 04:05:08;;;;;;;;;11.50;10.00;;;;;9.16;73.31;100852.34;5056267;28;45820;-76
2022/02/04 04:07:36;;;;;;;;;11.00;9.50;;;;;9.34;73.42;100884.31;5054337;28;48459;-74
2022/02/04 04:10:10;;;;;;;;;11.00;10.00;;;;;9.34;73.00;100888.75;5055578;28;46942;-77
2022/02/04 04:12:35;;;;;;;;;12.00;11.00;;;;;9.31;73.32;100881.06;5055251;28;45459;-75
2022/02/04 04:15:06;;;;;;;;;14.00;12.75;;;;;9.31;73.10;100870.63;5056156;28;45683;-77
2022/02/04 04:17:38;;;;;;;;;15.75;11.25;;;;;9.35;73.21;100885.16;5056125;28;46575;-74
2022/02/04 04:20:17;;;;;;;;;16.25;14.00;;;;;9.31;73.52;100881.91;5055950;28;46537;-76
2022/02/04 04:22:43;;;;;;;;;16.50;13.50;;;;;9.37;73.38;100883.31;5055709;28;45816;-78
2022/02/04 04:25:10;;;;;;;;;12.25;11.50;;;;;9.27;73.44;100867.34;5056049;28;45524;-77
2022/02/04 04:27:35;;;;;;;;;15.75;15.00;;;;;9.32;73.30;100874.91;5055401;28;46474;-77
2022/02/04 04:30:01;;;;;;;;;14.50;13.25;;;;;9.37;73.40;100868.47;5055136;28;46090;-76
2022/02/04 04:32:28;;;;;;;;;17.00;14.00;;;;;9.34;73.29;100863.41;5055483;28;45673;-76
2022/02/04 04:34:54;;;;;;;;;17.75;14.75;;;;;9.39;73.42;100873.59;5055552;28;45712;-77
2022/02/04 04:37:20;;;;;;;;;15.50;13.00;;;;;9.35;73.51;100867.72;5055111;28;45726;-76
2022/02/04 04:40:25;;;;;;;;;16.75;15.50;;;;;9.36;73.47;100869.41;5055532;28;46171;-76
2022/02/04 05:34:22;;;;;;;;;15.50;14.75;;;;;9.43;73.96;100848.94;5056294;28;45749;-79
2022/02/04 05:37:08;;;;;;;;;16.25;13.50;;;;;8.94;74.10;100770.94;5039244;28;47252;-77
2022/02/04 05:39:49;;;;;;;;;16.25;13.50;;;;;9.42;74.26;100839.41;5055445;28;45888;-78
2022/02/04 05:42:22;;;;;;;;;16.00;14.50;;;;;9.40;74.42;100849.97;5040555;28;45586;-77
2022/02/04 05:48:16;;;;;;;;;18.25;14.50;;;;;9.28;74.20;100816.75;5057726;28;46126;-77
2022/02/04 05:50:55;;;;;;;;;16.25;13.75;;;;;9.40;74.48;100841.28;5056365;28;45690;-75
2022/02/04 05:53:27;;;;;;;;;17.25;16.00;;;;;9.20;74.33;100800.69;5056021;28;45585;-75
2022/02/04 06:22:21;;;;;;;;;14.25;12.25;;;;;9.53;73.92;100839.56;4996350;28;45652;-77
2022/02/04 06:24:53;;;;;;;;;19.25;15.50;;;;;9.60;73.73;100848.72;4979925;28;46137;-77
2022/02/04 06:27:41;;;;;;;;;17.75;16.50;;;;;9.61;73.99;100848.59;4996263;28;45921;-79
2022/02/04 06:30:07;;;;;;;;;17.00;14.50;;;;;9.58;73.76;100840.13;4995693;28;46199;-76
2022/02/04 06:32:33;;;;;;;;;16.00;13.75;;;;;9.60;73.68;100839.09;4995433;28;45605;-77
2022/02/04 06:34:59;;;;;;;;;17.75;12.00;;;;;9.63;73.95;100838.06;5023128;28;45814;-78
2022/02/04 06:37:26;;;;;;;;;16.25;14.50;;;;;9.57;73.78;100820.13;5057193;28;46315;-76
2022/02/04 06:39:52;;;;;;;;;15.50;13.00;;;;;9.66;73.90;100836.06;5056051;28;46635;-75
2022/02/04 06:42:21;;;;;;;;;17.75;15.75;;;;;9.62;73.67;100821.53;5057565;28;45731;-76
2022/02/04 06:44:47;;;;;;;;;18.75;16.50;;;;;9.48;73.78;100797.19;5055788;28;46027;-74
2022/02/04 06:47:12;;;;;;;;;15.25;12.00;;;;;9.70;73.61;100828.91;5057032;28;45617;-75
2022/02/04 06:49:45;;;;;;;;;16.75;14.75;;;;;9.71;73.87;100827.13;5056884;28;46992;-78
2022/02/04 06:52:14;;;;;;;;;20.25;16.25;;;;;9.72;73.79;100826.19;5056602;28;46347;-78
2022/02/04 06:54:40;;;;;;;;;12.50;11.50;;;;;9.62;73.64;100805.81;5056996;28;45956;-73
2022/02/04 06:57:06;;;;;;;;;21.75;15.50;;;;;9.66;73.85;100809.09;5055072;28;46278;-74
2022/02/04 06:59:33;;;;;;;;;16.75;14.00;;;;;9.71;73.70;100817.50;5056137;28;47124;-76
2022/02/04 07:02:10;;;;;;;;;17.00;12.00;;;;;9.46;73.84;100781.59;5056027;28;45681;-75
2022/02/04 07:04:41;;;;;;;;;17.25;16.75;;;;;9.42;73.52;100780.13;5056567;28;45643;-77
2022/02/04 07:07:09;;;;;;;;;18.00;16.00;;;;;9.16;73.60;100739.09;5056666;28;45691;-79
2022/02/04 07:12:20;;;;;;;;;25.75;19.00;;;;;9.62;73.70;100805.81;5056250;28;45664;-77
2022/02/04 07:19:48;;;;;;;;;16.75;15.50;;;;;9.76;73.78;100828.50;5056290;28;45637;-76
2022/02/04 07:22:18;;;;;;;;;17.25;15.00;;;;;9.75;73.84;100824.19;5053777;28;45582;-75
2022/02/04 07:24:45;;;;;;;;;18.25;16.50;;;;;9.74;73.63;100817.28;5056365;28;45919;-76
2022/02/04 07:27:11;;;;;;;;;12.25;12.25;;;;;9.71;73.87;100822.72;5056258;28;46637;-76
2022/02/04 07:29:37;;;;;;;;;11.50;10.50;;;;;9.70;73.80;100821.03;5058215;28;46110;-75
2022/02/04 07:32:11;;;;;;;;;19.50;15.25;;;;;9.75;73.61;100824.19;5056284;28;45645;-75
2022/02/04 07:34:46;;;;;;;;;21.75;16.25;;;;;9.74;73.82;100824.28;5056484;28;45529;-76
2022/02/04 07:42:39;;;;;;;;;15.00;15.00;;;;;9.68;73.93;100815.91;5055723;28;45653;-76
2022/02/04 07:45:05;;;;;;;;;12.75;12.25;;;;;9.55;73.80;100788.03;5056258;28;45660;-74
2022/02/04 07:47:31;;;;;;;;;15.00;13.75;;;;;9.76;73.70;100819.81;5055641;28;45649;-75
2022/02/04 07:49:57;;;;;;;;;15.50;12.50;;;;;9.71;73.73;100806.19;5057085;28;47432;-75
2022/02/04 07:52:22;;;;;;;;;14.00;12.00;;;;;9.76;74.00;100810.19;5058313;28;46098;-77
2022/02/04 07:54:48;;;;;;;;;18.00;15.25;;;;;9.77;73.90;100808.41;5039630;28;45689;-75
2022/02/04 07:57:13;;;;;;;;;9.50;8.75;;;;;9.76;73.69;100799.72;5059099;28;45546;-76
2022/02/04 07:59:39;;;;;;;;;13.75;12.00;;;;;9.80;74.04;100808.22;5058905;28;45839;-75
2022/02/04 08:02:04;;;;;;;;;13.00;12.00;;;;;9.80;73.73;100806.44;5073801;28;45608;-75
2022/02/04 08:04:32;;;;;;;;;14.00;11.25;;;;;9.80;73.67;100801.19;5058048;28;45662;-76
2022/02/04 08:07:05;;;;;;;;;12.25;12.25;;;;;9.80;73.74;100813.44;5056453;28;47352;-76
2022/02/04 08:10:00;;;;;;;;;13.50;11.50;;;;;9.69;73.86;100778.34;5058312;28;46016;-75
2022/02/04 08:15:51;;;;;;;;;11.25;10.25;;;;;9.31;73.74;100726.81;5059459;28;45637;-75
2022/02/04 08:19:21;;;;;;;;;12.00;11.00;;;;;9.83;73.80;100808.84;5043407;28;47632;-74
2022/02/04 08:21:42;;;;;;;;;12.50;12.00;;;;;9.77;73.76;100796.16;5058421;28;46225;-76
2022/02/04 08:27:07;;;;;;;;;16.50;13.50;;;;;9.88;73.62;100813.78;5059641;28;45669;-76
2022/02/04 08:36:28;;;;;;;;;14.25;11.50;;;;;9.92;73.47;100804.81;5056471;28;45586;-77
2022/02/04 08:55:54;;;;;;;;;17.75;12.50;;;;;9.42;73.22;100724.34;5054347;28;46110;-77
2022/02/04 08:58:39;;;;;;;;;17.25;12.75;;;;;9.61;73.36;100743.97;5053455;28;45807;-76
2022/02/04 09:01:19;;;;;;;;;;;;;;;;;;;;;
2022/02/04 09:06:18;;;;;;;;;14.00;12.00;;;;;9.94;73.16;100795.91;5052483;28;45845;-75
2022/02/04 09:08:48;;;;;;;;;11.25;10.00;;;;;9.97;73.06;100795.72;5052711;28;45576;-77
2022/02/04 09:20:38;;;;;;;;;12.50;9.50;;;;;9.53;73.00;100712.28;5053222;28;45594;-77
2022/02/04 09:23:32;;;;;;;;;;;;;;;;;;;;;
2022/02/04 09:26:06;;;;;;;;;11.50;11.50;;;;;9.52;72.90;100689.66;5053085;28;75257;-77
2022/02/04 09:28:56;;;;;;;;;11.50;9.75;;;;;9.56;72.77;100709.44;5053506;28;47117;-80
2022/02/04 09:34:44;;;;;;;;;10.25;8.00;;;;;9.83;72.92;100738.19;5053414;28;45858;-75
2022/02/04 09:37:10;;;;;;;;;13.00;11.25;;;;;9.63;72.69;100691.56;5054511;28;46455;-78
2022/02/04 09:39:38;;;;;;;;;9.50;9.25;;;;;9.99;72.54;100765.03;5054771;28;46291;-76
2022/02/04 09:42:04;;;;;;;;;10.00;9.25;;;;;10.10;72.60;100764.31;5054461;28;45785;-77
2022/02/04 09:50:49;;;;;;;;;12.00;11.00;;;;;10.02;72.59;100753.53;5053908;28;46166;-76
2022/02/04 10:05:57;;;;;;;;;11.00;8.25;;;;;10.24;72.80;100769.50;5054078;28;45577;-74
2022/02/04 10:08:24;;;;;;;;;10.50;8.50;;;;;10.22;72.70;100771.38;5053820;28;45651;-75
2022/02/04 10:20:23;;;;;;;;;12.00;6.25;;;;;10.17;73.06;100762.16;5053955;28;45860;-75
2022/02/04 10:22:49;;;;;;;;;10.50;8.75;;;;;10.17;72.76;100756.94;5053320;28;46792;-76
2022/02/04 10:25:28;;;;;;;;;7.00;6.25;;;;;10.26;72.83;100761.53;5035611;28;47212;-76
2022/02/04 10:27:55;;;;;;;;;8.00;7.50;;;;;10.32;72.65;100761.97;5053662;28;45925;-77
2022/02/04 10:30:21;;;;;;;;;6.25;6.00;;;;;10.29;72.51;100753.50;5053990;28;45648;-76
2022/02/04 10:33:13;;;;;;;;;9.25;7.00;;;;;10.41;72.47;100753.50;5035442;28;47495;-77
2022/02/04 10:35:38;;;;;;;;;6.50;5.50;;;;;10.40;72.31;100743.97;5053521;28;46666;-76
2022/02/04 10:40:57;;;;;;;;;5.25;5.25;;;;;10.48;72.15;100727.72;5054149;28;45654;-76
2022/02/04 10:49:07;;;;;;;;;13.50;12.00;;;;;10.66;72.05;100743.94;5054208;28;46013;-75
2022/02/04 10:52:10;;;;;;;;;7.75;6.25;;;;;10.70;71.90;100751.50;5054096;28;45614;-76
2022/02/04 10:57:42;;;;;;;;;5.75;5.50;;;;;10.73;71.65;100734.72;5056877;28;45578;-75
2022/02/04 11:03:33;;;;;;;;;6.50;6.00;;;;;10.78;71.65;100737.88;5056902;28;45527;-76
2022/02/04 11:06:17;;;;;;;;;6.75;6.00;;;;;10.85;71.33;100747.78;5055986;28;46779;-76
2022/02/04 11:09:06;;;;;;;;;7.00;4.00;;;;;10.83;71.36;100744.47;5055040;28;46066;-76
2022/02/04 11:31:31;;;;;;;;;4.00;3.00;;;;;11.03;70.58;100729.94;5056145;28;45976;-77
2022/02/04 11:43:44;;;;;;;;;2.00;2.00;;;;;11.11;70.34;100732.88;5014136;28;45607;-76
2022/02/04 11:48:45;;;;;;;;;3.00;2.00;;;;;11.28;70.02;100695.75;5014005;28;45627;-75
2022/02/04 11:51:31;;;;;;;;;2.00;2.00;;;;;11.31;69.84;100694.72;4997080;28;46173;-75
2022/02/04 11:57:03;;;;;;;;;3.00;2.25;;;;;11.33;69.55;100666.59;4974035;28;45712;-75
2022/02/04 11:59:37;;;;;;;;;1.50;1.00;;;;;11.35;69.41;100665.53;4974238;28;45928;-74
2022/02/04 12:02:33;;;;;;;;;3.00;3.00;;;;;11.39;69.25;100660.06;4973717;28;46513;-74
2022/02/04 12:05:07;;;;;;;;;3.00;3.00;;;;;11.42;69.22;100644.94;4973947;28;47241;-74
2022/02/04 12:07:33;;;;;;;;;3.00;2.25;;;;;11.42;69.20;100639.69;4973387;28;45701;-75
2022/02/04 12:10:01;;;;;;;;;2.00;2.00;;;;;11.47;69.09;100634.94;4974056;28;45660;-74
2022/02/04 12:18:43;;;;;;;;;3.75;2.00;;;;;11.70;68.43;100627.97;4993270;28;45738;-75
2022/02/04 12:21:12;;;;;;;;;2.00;1.75;;;;;11.77;68.39;100619.53;4993595;28;45745;-74
2022/02/04 12:23:43;;;;;;;;;2.50;2.00;;;;;11.85;68.01;100623.38;4993485;28;47929;-74
2022/02/04 12:26:09;;;;;;;;;2.50;1.50;;;;;11.89;67.81;100616.91;4993283;28;46096;-75
2022/02/04 12:28:47;;;;;;;;;1.75;1.75;;;;;11.93;67.62;100592.13;4993336;28;45584;-75
2022/02/04 12:34:35;;;;;;;;;0.50;0.50;;;;;12.00;67.37;100593.31;5042261;28;45994;-75
2022/02/04 12:37:02;;;;;;;;;4.00;2.00;;;;;11.93;67.07;100571.94;5055469;28;45972;-75
2022/02/04 12:39:32;;;;;;;;;2.25;1.00;;;;;12.07;66.83;100584.00;5055504;28;45514;-75
2022/02/04 12:42:03;;;;;;;;;2.00;1.00;;;;;12.16;66.60;100580.66;5055430;28;45678;-75
2022/02/04 12:44:32;;;;;;;;;4.00;1.00;;;;;12.19;66.68;100569.94;5053641;28;47288;-75
2022/02/04 12:50:25;;;;;;;;;0.75;0.75;;;;;12.28;65.26;100566.56;5055028;28;45609;-75
2022/02/04 12:52:51;;;;;;;;;0.00;0.00;;;;;12.34;65.36;100542.44;5054987;28;45642;-75
2022/02/04 12:55:26;;;;;;;;;0.25;0.00;;;;;12.34;64.34;100547.69;5054910;28;45477;-75
2022/02/04 13:09:49;;;;;;;;;0.75;0.75;;;;;12.44;63.11;100545.16;5052729;28;46143;-76
2022/02/04 13:12:05;;;;;;;;;0.00;0.00;;;;;12.52;63.54;100548.84;5054174;28;45573;-75
2022/02/04 13:14:31;;;;;;;;;1.00;1.00;;;;;12.53;63.46;100549.69;5053700;28;45685;-76
2022/02/04 13:16:56;;;;;;;;;0.25;0.25;;;;;12.59;63.39;100549.19;5054886;28;45720;-76
2022/02/04 13:19:22;;;;;;;;;0.75;0.75;;;;;12.60;63.25;100535.94;5035362;28;45702;-75
2022/02/04 13:21:47;;;;;;;;;1.00;1.00;;;;;12.59;63.72;100534.25;5054557;28;45609;-74
2022/02/04 13:24:13;;;;;;;;;1.50;1.00;;;;;12.60;63.74;100543.81;5054370;28;45467;-75
2022/02/04 13:26:39;;;;;;;;;2.00;2.00;;;;;12.57;63.44;100536.19;5054585;28;46477;-76
2022/02/04 13:29:05;;;;;;;;;1.00;1.00;;;;;12.56;63.50;100524.00;5054697;28;46096;-75
2022/02/04 13:31:35;;;;;;;;;0.50;0.50;;;;;12.62;63.37;100554.22;5052814;28;45667;-76
2022/02/04 13:34:10;;;;;;;;;1.00;0.75;;;;;12.61;63.00;100552.53;5053786;28;45804;-76
2022/02/04 13:36:42;;;;;;;;;1.50;1.00;;;;;12.58;63.11;100558.88;5054561;28;46536;-75
2022/02/04 13:42:22;;;;;;;;;1.00;1.00;;;;;12.52;62.51;100567.25;5039346;28;45666;-76
2022/02/04 13:53:13;;;;;;;;;0.00;0.00;;;;;12.47;62.70;100558.09;5054268;28;45622;-76
2022/02/04 13:56:08;;;;;;;;;1.00;1.00;;;;;12.43;62.79;100554.00;5035960;28;45611;-75
2022/02/04 13:58:40;;;;;;;;;1.25;0.00;;;;;12.42;62.44;100560.22;5053722;28;45644;-76
2022/02/04 14:04:28;;;;;;;;;0.00;0.00;;;;;12.40;62.92;100551.63;5054000;28;45442;-77
2022/02/04 14:07:11;;;;;;;;;0.00;0.00;;;;;12.39;62.25;100557.84;5054349;28;45631;-76
2022/02/04 14:09:49;;;;;;;;;0.00;0.00;;;;;12.34;62.76;100560.84;5053666;28;46769;-77
2022/02/04 14:12:19;;;;;;;;;0.00;0.00;;;;;12.36;62.60;100561.53;5053691;28;46211;-76
2022/02/04 14:14:55;;;;;;;;;0.00;0.00;;;;;12.33;62.61;100574.09;5054243;28;45676;-76
2022/02/04 14:20:46;;;;;;;;;0.00;0.00;;;;;12.34;62.98;100573.97;5053876;28;45740;-76
2022/02/04 14:23:13;;;;;;;;;0.50;0.50;;;;;12.34;63.06;100573.97;5053895;28;45953;-77
2022/02/04 14:28:31;;;;;;;;;3.00;1.00;;;;;12.31;62.92;100576.03;5053846;28;45557;-75
2022/02/04 14:31:04;;;;;;;;;0.00;0.00;;;;;12.30;63.19;100593.56;5054838;28;45760;-76
2022/02/04 14:51:49;;;;;;;;;0.00;0.00;;;;;11.96;67.12;100618.13;5056930;28;45604;-76
2022/02/04 14:54:31;;;;;;;;;1.00;0.00;;;;;11.89;68.31;100632.66;5056277;28;46572;-75
2022/02/04 15:00:10;;;;;;;;;0.75;0.00;;;;;11.69;73.24;100757.50;5056960;28;45737;-77
2022/02/04 15:02:42;;;;;;;;;0.00;0.00;;;;;11.45;73.35;100733.88;5056116;28;45696;-75
2022/02/04 15:05:18;;;;;;;;;0.25;0.00;;;;;11.29;76.58;100725.44;5056898;28;45958;-76
2022/02/04 15:07:45;;;;;;;;;0.00;0.00;;;;;11.07;74.75;100723.53;5056122;28;46577;-77
2022/02/04 15:10:16;;;;;;;;;0.75;0.50;;;;;10.84;75.00;100727.78;5056955;28;45672;-76
2022/02/04 15:12:44;;;;;;;;;0.00;0.00;;;;;10.66;74.51;100731.69;5057090;28;45766;-76
2022/02/04 15:15:10;;;;;;;;;0.00;0.00;;;;;10.54;75.43;100719.44;5056976;28;46522;-75
2022/02/04 15:17:37;;;;;;;;;1.50;1.00;;;;;10.43;75.18;100732.44;5056576;28;47092;-74
2022/02/04 15:20:04;;;;;;;;;0.00;0.00;;;;;10.35;75.63;100753.06;5056594;28;45676;-77
2022/02/04 15:22:30;;;;;;;;;0.00;0.00;;;;;10.26;76.13;100740.59;5056982;28;45528;-75
2022/02/04 15:25:00;;;;;;;;;0.75;0.00;;;;;10.17;76.00;100749.06;5055201;28;47310;-75
2022/02/04 15:27:27;;;;;;;;;0.00;0.00;;;;;10.09;75.68;100771.31;5056314;28;45740;-77
2022/02/04 15:29:53;;;;;;;;;0.50;0.00;;;;;10.00;75.97;100760.63;5056199;28;45561;-74
2022/02/04 15:32:18;;;;;;;;;1.00;0.00;;;;;9.95;75.48;100763.56;5056416;28;45744;-75
2022/02/04 15:34:44;;;;;;;;;0.00;0.00;;;;;9.92;75.34;100804.81;5056172;28;46464;-74
2022/02/04 15:37:09;;;;;;;;;0.00;0.00;;;;;9.87;75.98;100833.03;5055997;28;45587;-76
2022/02/04 15:39:35;;;;;;;;;0.00;0.00;;;;;9.78;77.67;100804.84;5056094;28;45576;-75
2022/02/04 15:42:10;;;;;;;;;0.00;0.00;;;;;9.69;78.06;100811.50;5055684;28;45507;-75
2022/02/04 15:44:41;;;;;;;;;0.00;0.00;;;;;9.58;78.54;100813.97;5056619;28;47416;-77
2022/02/04 15:47:28;;;;;;;;;1.00;0.00;;;;;9.46;79.20;100831.28;5058058;28;47124;-76
2022/02/04 15:53:12;;;;;;;;;0.00;0.00;;;;;9.18;78.84;100820.84;5063182;28;45523;-77
2022/02/04 16:01:17;;;;;;;;;0.00;0.00;;;;;8.99;79.33;100838.59;5005906;28;45752;-75
2022/02/04 16:06:14;;;;;;;;;0.25;0.25;;;;;8.96;79.25;100870.16;5018464;28;45763;-76
2022/02/04 16:08:42;;;;;;;;;1.00;0.00;;;;;8.93;79.24;100859.88;5001201;28;46362;-75
2022/02/04 16:13:41;;;;;;;;;2.00;0.75;;;;;9.05;79.55;100872.22;5016803;28;45583;-75
2022/02/04 16:18:59;;;;;;;;;1.00;1.00;;;;;9.12;78.82;100866.50;5014137;28;45950;-75
2022/02/04 16:21:36;;;;;;;;;0.75;0.75;;;;;9.24;79.37;100877.97;5013987;28;45659;-75
2022/02/04 16:29:16;;;;;;;;;1.00;1.00;;;;;9.50;79.60;100890.28;5013434;28;45713;-74
2022/02/04 16:31:43;;;;;;;;;1.50;1.00;;;;;9.58;79.51;100903.75;5014077;28;45655;-76
2022/02/04 16:34:09;;;;;;;;;1.00;1.00;;;;;9.58;79.97;100916.81;5013557;28;45662;-76
2022/02/04 16:36:42;;;;;;;;;1.00;1.00;;;;;9.50;79.81;100898.13;5055156;28;46487;-77
2022/02/04 16:39:09;;;;;;;;;0.75;0.25;;;;;9.48;79.33;100901.78;5054112;28;45945;-77
2022/02/04 16:44:11;;;;;;;;;1.00;1.00;;;;;9.36;79.47;100913.84;5038711;28;45580;-75
2022/02/04 16:46:36;;;;;;;;;0.75;0.00;;;;;9.34;79.76;100933.19;5055465;28;46455;-77
2022/02/04 16:49:02;;;;;;;;;2.00;1.00;;;;;9.31;79.64;100931.59;5055154;28;45616;-75
2022/02/04 16:51:27;;;;;;;;;1.00;1.00;;;;;9.17;78.71;100921.97;5055182;28;45598;-73
2022/02/04 16:53:53;;;;;;;;;1.00;1.00;;;;;9.21;78.59;100943.53;5055445;28;45607;-79
2022/02/04 16:56:18;;;;;;;;;1.00;1.00;;;;;9.16;78.31;100954.28;5055790;28;45506;-75
2022/02/04 16:58:44;;;;;;;;;3.00;1.00;;;;;9.17;78.46;100950.72;5054950;28;45574;-75
2022/02/04 17:01:09;;;;;;;;;1.00;1.00;;;;;9.15;78.17;100963.03;5054895;28;45777;-77
2022/02/04 17:03:35;;;;;;;;;0.75;0.75;;;;;9.11;78.13;100966.78;5036882;28;45619;-76
2022/02/04 17:06:04;;;;;;;;;2.00;0.75;;;;;9.11;77.52;100973.78;5054799;28;46697;-74
2022/02/04 17:08:35;;;;;;;;;0.00;0.00;;;;;9.07;77.52;100983.53;5054940;28;46027;-76
2022/02/04 17:11:12;;;;;;;;;1.00;1.00;;;;;9.07;77.45;100980.94;5054661;28;45681;-76
2022/02/04 17:13:39;;;;;;;;;1.00;0.00;;;;;9.05;77.45;100990.66;5055109;28;45632;-75
2022/02/04 17:16:05;;;;;;;;;0.00;0.00;;;;;9.03;77.05;100994.28;5036660;28;46395;-75
2022/02/04 17:18:32;;;;;;;;;0.50;0.00;;;;;9.04;76.48;101022.94;5054824;28;46057;-77
2022/02/04 17:20:58;;;;;;;;;1.00;0.00;;;;;9.01;76.23;101015.28;5054832;28;45636;-75
2022/02/04 17:23:29;;;;;;;;;1.00;1.00;;;;;8.97;76.04;101012.91;5054965;28;45478;-76
2022/02/04 17:25:57;;;;;;;;;0.00;0.00;;;;;8.98;76.43;101032.91;5054485;28;45616;-75
2022/02/04 17:28:26;;;;;;;;;0.25;0.00;;;;;8.96;76.65;101035.59;5054402;28;46721;-76
2022/02/04 17:30:52;;;;;;;;;0.75;0.00;;;;;8.88;76.03;101029.97;5054485;28;45712;-76
2022/02/04 17:33:18;;;;;;;;;1.00;1.00;;;;;8.89;75.94;101041.28;5054335;28;45609;-76
2022/02/04 17:35:43;;;;;;;;;1.50;1.00;;;;;8.89;76.18;101041.28;5054278;28;45693;-76
2022/02/04 17:38:09;;;;;;;;;1.00;1.00;;;;;8.86;75.43;101047.50;5054241;28;46611;-75
2022/02/04 17:40:34;;;;;;;;;1.00;1.00;;;;;8.81;75.13;101052.16;5054325;28;45559;-76
2022/02/04 17:43:00;;;;;;;;;1.00;0.25;;;;;8.82;75.49;101072.13;5055040;28;45533;-75
2022/02/04 17:45:26;;;;;;;;;0.00;0.00;;;;;8.73;75.27;101047.38;5054446;28;45437;-75
2022/02/04 17:48:03;;;;;;;;;0.25;0.25;;;;;8.77;75.98;101069.78;5054129;28;46943;-73
2022/02/04 17:50:33;;;;;;;;;1.00;0.25;;;;;8.74;75.17;101076.97;5054544;28;45777;-75
2022/02/04 17:53:05;;;;;;;;;0.00;0.00;;;;;8.71;75.44;101088.41;5054057;28;45607;-74
2022/02/04 17:55:39;;;;;;;;;1.00;1.00;;;;;8.66;75.57;101093.03;5053789;28;46311;-76
2022/02/04 18:01:13;;;;;;;;;1.00;1.00;;;;;8.60;74.79;101090.75;5053741;28;45879;-76
2022/02/04 18:06:24;;;;;;;;;2.00;1.25;;;;;8.54;73.93;101113.75;5051966;28;46358;-75
2022/02/04 18:08:49;;;;;;;;;1.00;0.75;;;;;8.54;74.38;101126.81;5052560;28;46424;-75
2022/02/04 18:11:15;;;;;;;;;1.00;1.00;;;;;8.51;74.12;101119.16;5052658;28;45484;-75
2022/02/04 18:13:41;;;;;;;;;2.25;1.00;;;;;8.51;74.81;101125.22;5053618;28;45679;-75
2022/02/04 18:16:07;;;;;;;;;3.00;1.75;;;;;8.51;73.96;101132.22;5053157;28;46352;-73
2022/02/04 18:18:32;;;;;;;;;2.50;1.75;;;;;8.50;73.93;101130.53;5053122;28;45889;-74
2022/02/04 18:21:01;;;;;;;;;2.00;1.00;;;;;8.48;73.71;101132.34;5052970;28;45607;-75
2022/02/04 18:23:26;;;;;;;;;3.00;2.50;;;;;8.47;75.12;101149.81;5053780;28;45642;-75
2022/02/04 18:25:52;;;;;;;;;4.50;2.75;;;;;8.45;74.48;101153.44;5053262;28;46306;-75
2022/02/04 18:28:21;;;;;;;;;3.00;3.00;;;;;8.41;74.32;101142.31;5052962;28;46003;-73
2022/02/04 18:30:50;;;;;;;;;2.00;2.00;;;;;8.39;74.84;101158.06;5053263;28;45487;-74
2022/02/04 18:33:16;;;;;;;;;2.00;2.00;;;;;8.34;73.91;101154.00;5053426;28;45596;-74
2022/02/04 18:35:45;;;;;;;;;2.50;2.50;;;;;8.36;73.81;101166.06;5052788;28;47264;-75
2022/02/04 18:38:19;;;;;;;;;2.75;2.25;;;;;8.33;73.95;101184.47;5053145;28;47400;-75
2022/02/04 18:48:50;;;;;;;;;5.50;2.75;;;;;8.30;73.68;101182.03;4991241;28;46203;-74
2022/02/04 18:54:14;;;;;;;;;3.00;3.00;;;;;8.24;74.35;101182.31;4991640;28;45767;-76
2022/02/04 18:59:29;;;;;;;;;2.50;2.00;;;;;8.23;74.62;101196.28;4991349;28;45990;-75
2022/02/04 19:01:55;;;;;;;;;5.00;3.00;;;;;8.19;74.07;101191.31;4990948;28;45691;-75
2022/02/04 19:04:28;;;;;;;;;3.00;3.00;;;;;8.19;73.69;101197.38;4991112;28;45577;-74
2022/02/04 19:07:02;;;;;;;;;2.00;1.25;;;;;8.18;74.16;101198.31;4990842;28;46496;-75
2022/02/04 19:09:28;;;;;;;;;5.25;4.50;;;;;8.15;73.36;101193.22;4990514;28;47247;-75
2022/02/04 19:12:00;;;;;;;;;4.00;1.75;;;;;8.17;73.82;101195.75;4990738;28;45767;-75
2022/02/04 19:14:45;;;;;;;;;5.25;4.50;;;;;8.16;73.69;101200.13;4990979;28;45918;-75